Pagrindinis puslapis
METAR-TAF:

METAR-TAF

Oro uostai :

Vilhelmina, Švedija

platuma: 64-34-44N, ilguma: 016-50-00E, Aukštis: 347 m

Dabartinis oras

Ataskaita buvo paskelbta 37 minutes, ne 18:50 UTC
Vėjas 6 kt iš Pietvakarių
Temperatūra -1°C
Drėgmė 86%
Slėgis 978 hPa
Matomumas 10 km arba daugiau
Mažai debesys ne aukštis 2600 ft

METAR: ESNV 051850Z 22006KT 9999 FEW026 M01/M03 Q0978

Laikas: 20:27 (19:27 UTC)


TAF: trūkstamas

Orai ataskaitas ir orų prognozės (METAR, TAF).

turimą stotys yra geltonos ir raudonos taškus žemėlapyje.

Perkelti pele per norėdami pamatyti stoties vardą.

Tada spustelėkite, norėdami matyti oro stebėjimo ir prognozės.

Norėdami pakeisti žemėlapį: spustelėkite ant žalios mygtukų su juodo kryžiaus žemyn,; žalią mygtuką su brūkšneliu, jei norite nutolinti; arba žalių rodyklių gretimoms žemėlapius.


METAR-TAF: